Time;durP1;ratioP1;P1;durP2;ratioP2;P2;SDS_P1;SDS_P2;PMS_P1;PMS_P2;Temp;Humidity;BMP_temperature;BMP_pressure;BME280_temperature;BME280_humidity;BME280_pressure;Samples;Min_cycle;Max_cycle;Signal;HPM_P1;HPM_P2
2022/05/24 00:00:27;;;;;;;6.63;3.60;;;19.60;99.90;;;;;;1042717;28;20528;-72
2022/05/24 00:00:58;;;;;;;4.22;3.53;;;19.60;99.90;;;;;;1038347;28;20041;-71
2022/05/24 00:01:28;;;;;;;4.90;3.50;;;19.60;99.90;;;;;;1038507;28;20152;-71
2022/05/24 00:01:59;;;;;;;4.70;3.70;;;19.60;99.90;;;;;;1035306;28;20034;-72
2022/05/24 00:02:29;;;;;;;4.47;3.67;;;19.60;99.90;;;;;;1034633;28;20026;-73
2022/05/24 00:03:01;;;;;;;4.30;3.63;;;19.60;99.90;;;;;;1038632;28;20037;-73
2022/05/24 00:03:31;;;;;;;4.45;3.72;;;19.50;99.90;;;;;;1038714;28;20041;-72
2022/05/24 00:04:02;;;;;;;4.23;3.37;;;19.50;99.90;;;;;;1042546;28;20033;-72
2022/05/24 00:04:33;;;;;;;3.30;2.80;;;19.50;99.90;;;;;;1042589;28;20820;-72
2022/05/24 00:05:04;;;;;;;3.53;2.70;;;19.50;99.90;;;;;;1043045;28;20122;-73
2022/05/24 00:05:36;;;;;;;5.20;4.25;;;19.50;99.90;;;;;;1043473;28;20020;-72
2022/05/24 00:06:06;;;;;;;4.05;3.65;;;19.50;99.90;;;;;;1043144;28;20076;-72
2022/05/24 00:06:37;;;;;;;4.30;3.63;;;19.50;99.90;;;;;;1043536;28;20209;-72
2022/05/24 00:07:07;;;;;;;5.23;4.00;;;19.50;99.90;;;;;;1043113;28;20130;-71
2022/05/24 00:07:39;;;;;;;4.53;3.50;;;19.50;99.90;;;;;;1039352;28;20017;-71
2022/05/24 00:08:10;;;;;;;4.60;3.83;;;19.50;99.90;;;;;;1034817;28;20025;-71
2022/05/24 00:08:41;;;;;;;5.20;4.10;;;19.50;99.90;;;;;;1035809;28;20018;-71
2022/05/24 00:09:11;;;;;;;4.05;3.65;;;19.50;99.90;;;;;;1039389;28;20029;-71
2022/05/24 00:09:42;;;;;;;3.87;3.47;;;19.50;99.90;;;;;;1043598;28;20020;-72
2022/05/24 00:10:17;;;;;;;4.47;4.07;;;19.50;99.90;;;;;;1043722;28;20112;-71
2022/05/24 00:10:48;;;;;;;5.47;3.97;;;19.50;99.90;;;;;;1043775;28;20009;-71
2022/05/24 00:11:18;;;;;;;4.67;4.27;;;19.50;99.90;;;;;;1043625;28;20021;-72
2022/05/24 00:11:49;;;;;;;5.47;3.87;;;19.50;99.90;;;;;;1043202;28;20052;-72
2022/05/24 00:12:20;;;;;;;5.93;4.50;;;19.50;99.90;;;;;;1043297;28;20027;-71
2022/05/24 00:12:50;;;;;;;4.57;4.17;;;19.50;99.90;;;;;;1043493;28;20028;-72
2022/05/24 00:13:21;;;;;;;5.40;3.77;;;19.50;99.90;;;;;;1043303;28;20013;-71
2022/05/24 00:13:52;;;;;;;4.57;3.92;;;19.50;99.90;;;;;;1039466;28;20024;-70
2022/05/24 00:15:27;;;;;;;4.03;3.63;;;19.50;99.90;;;;;;1043327;28;20058;-70
2022/05/24 00:15:58;;;;;;;5.00;3.75;;;19.50;99.90;;;;;;1043531;28;20025;-70
2022/05/24 00:16:28;;;;;;;3.87;3.47;;;19.50;99.90;;;;;;1043214;28;20017;-70
2022/05/24 00:16:59;;;;;;;4.07;2.53;;;19.40;99.90;;;;;;1043534;28;20093;-70
2022/05/24 00:17:29;;;;;;;4.23;3.80;;;19.50;99.90;;;;;;1043199;28;20856;-71
2022/05/24 00:18:03;;;;;;;4.23;3.63;;;19.50;99.90;;;;;;1043512;28;20084;-70
2022/05/24 00:18:34;;;;;;;4.03;3.47;;;19.50;99.90;;;;;;1043011;28;20013;-72
2022/05/24 00:19:05;;;;;;;4.23;3.83;;;19.50;99.90;;;;;;1043440;28;20115;-71
2022/05/24 00:19:35;;;;;;;4.40;3.90;;;19.50;99.90;;;;;;1043149;28;20144;-72
2022/05/24 00:20:06;;;;;;;5.03;3.90;;;19.50;99.90;;;;;;1043379;28;20214;-71
2022/05/24 00:20:44;;;;;;;4.30;3.90;;;19.50;99.90;;;;;;1043237;28;20052;-71
2022/05/24 00:21:14;;;;;;;4.45;3.70;;;19.50;99.90;;;;;;1040387;28;20108;-71
2022/05/24 00:21:45;;;;;;;6.00;4.80;;;19.50;99.90;;;;;;1043063;28;20020;-71
2022/05/24 00:22:16;;;;;;;4.67;4.23;;;19.50;99.90;;;;;;1043568;28;20443;-71
2022/05/24 00:22:46;;;;;;;5.17;3.20;;;19.50;99.90;;;;;;1043469;28;20021;-73
2022/05/24 00:23:18;;;;;;;5.67;3.87;;;19.50;99.90;;;;;;1043585;28;20393;-71
2022/05/24 00:23:49;;;;;;;5.15;4.65;;;19.50;99.90;;;;;;1043206;28;20036;-71
2022/05/24 00:24:19;;;;;;;4.50;4.10;;;19.50;99.90;;;;;;1043352;28;20024;-71
2022/05/24 00:24:50;;;;;;;4.70;3.63;;;19.50;99.90;;;;;;1039142;28;20123;-71
2022/05/24 00:25:20;;;;;;;4.70;3.00;;;19.50;99.90;;;;;;1043717;28;20035;-72
2022/05/24 00:25:54;;;;;;;4.87;3.53;;;19.50;99.90;;;;;;1043067;28;20748;-72
2022/05/24 00:26:30;;;;;;;5.65;4.40;;;19.50;99.90;;;;;;1043424;28;20016;-70
2022/05/24 00:27:00;;;;;;;4.50;4.10;;;19.50;99.90;;;;;;1043373;28;20032;-70
2022/05/24 00:27:31;;;;;;;5.03;4.47;;;19.50;99.90;;;;;;1043358;28;20042;-70
2022/05/24 00:28:03;;;;;;;3.63;3.33;;;19.50;99.90;;;;;;1043148;28;20321;-70
2022/05/24 00:28:35;;;;;;;5.10;3.63;;;19.40;99.90;;;;;;1043485;28;20012;-71
2022/05/24 00:29:05;;;;;;;3.92;3.53;;;19.40;99.90;;;;;;1042685;28;20511;-71
2022/05/24 00:29:36;;;;;;;3.57;3.00;;;19.50;99.90;;;;;;1039361;28;20477;-70
2022/05/24 00:30:07;;;;;;;3.97;3.20;;;19.50;99.90;;;;;;1039075;28;20108;-72
2022/05/24 00:30:39;;;;;;;5.28;3.90;;;19.50;99.90;;;;;;1039501;28;20014;-71
2022/05/24 00:31:09;;;;;;;4.75;3.28;;;19.50;99.90;;;;;;1043236;28;20051;-70
2022/05/24 00:31:40;;;;;;;4.47;3.67;;;19.50;99.90;;;;;;1043984;28;20021;-71
2022/05/24 00:32:10;;;;;;;5.27;4.03;;;19.50;99.90;;;;;;1043475;28;20373;-70
2022/05/24 00:32:42;;;;;;;5.73;3.27;;;19.50;99.90;;;;;;1043722;28;20492;-71
2022/05/24 00:33:13;;;;;;;5.07;2.95;;;19.50;99.90;;;;;;1043572;28;20112;-72
2022/05/24 00:33:43;;;;;;;4.05;3.65;;;19.50;99.90;;;;;;1043857;28;20087;-71
2022/05/24 00:34:14;;;;;;;3.70;3.40;;;19.50;99.90;;;;;;1043521;28;20529;-71
2022/05/24 00:34:44;;;;;;;3.73;3.07;;;19.50;99.90;;;;;;1043294;28;20020;-72
2022/05/24 00:35:15;;;;;;;4.90;3.87;;;19.50;99.90;;;;;;1043001;28;20035;-71
2022/05/24 00:35:46;;;;;;;3.40;2.97;;;19.50;99.90;;;;;;1043443;28;20333;-72
2022/05/24 00:36:17;;;;;;;3.90;3.50;;;19.50;99.90;;;;;;1043473;28;20032;-72
2022/05/24 00:36:47;;;;;;;4.50;3.10;;;19.50;99.90;;;;;;1042784;28;20259;-71
2022/05/24 00:37:22;;;;;;;3.23;2.93;;;19.50;99.90;;;;;;1043041;28;20353;-71
2022/05/24 00:37:52;;;;;;;3.85;3.35;;;19.50;99.90;;;;;;1043288;28;20013;-72
2022/05/24 00:38:29;;;;;;;4.53;3.73;;;19.50;99.90;;;;;;1043136;28;20032;-72
2022/05/24 00:39:00;;;;;;;5.38;4.82;;;19.50;99.90;;;;;;1043381;28;20133;-73
2022/05/24 00:39:31;;;;;;;5.07;3.93;;;19.50;99.90;;;;;;1043124;28;20020;-71
2022/05/24 00:40:01;;;;;;;6.37;4.00;;;19.50;99.90;;;;;;1043386;28;20017;-71
2022/05/24 00:40:46;;;;;;;4.73;4.20;;;19.50;99.90;;;;;;1043102;28;20021;-71
2022/05/24 00:41:29;;;;;;;5.15;3.90;;;19.50;99.90;;;;;;1043399;28;20024;-72
2022/05/24 00:42:10;;;;;;;4.78;4.38;;;19.50;99.90;;;;;;1043475;28;20185;-71
2022/05/24 00:42:43;;;;;;;4.13;3.65;;;19.50;99.90;;;;;;1043212;28;20418;-71
2022/05/24 00:43:37;;;;;;;3.72;3.25;;;19.50;99.90;;;;;;1040732;28;20032;-72
2022/05/24 00:44:29;;;;;;;3.72;2.85;;;19.50;99.90;;;;;;1042347;28;20056;-72
2022/05/24 00:45:11;;;;;;;5.05;4.55;;;19.50;99.90;;;;;;1041246;28;20064;-71
2022/05/24 00:45:46;;;;;;;4.80;3.90;;;19.50;99.90;;;;;;1039311;28;20025;-72
2022/05/24 00:46:24;;;;;;;5.65;3.75;;;19.50;99.90;;;;;;1043431;28;20033;-71
2022/05/24 00:47:02;;;;;;;5.97;4.10;;;19.50;99.90;;;;;;1043234;28;20029;-72
2022/05/24 00:47:51;;;;;;;4.07;3.15;;;19.50;99.90;;;;;;1043353;28;20025;-72
2022/05/24 00:48:28;;;;;;;4.10;3.55;;;19.50;99.90;;;;;;1042630;28;20043;-72
2022/05/24 00:49:07;;;;;;;3.47;2.78;;;19.50;99.90;;;;;;1038996;28;20022;-72
2022/05/24 00:49:41;;;;;;;5.57;3.97;;;19.50;99.90;;;;;;1039495;28;20029;-71
2022/05/24 00:50:19;;;;;;;3.45;3.00;;;19.50;99.90;;;;;;1041440;28;20095;-72
2022/05/24 00:50:51;;;;;;;5.30;3.95;;;19.50;99.90;;;;;;1043166;28;20136;-71
2022/05/24 00:51:34;;;;;;;4.80;4.35;;;19.50;99.90;;;;;;1043281;28;20295;-73
2022/05/24 00:52:14;;;;;;;7.95;5.65;;;19.50;99.90;;;;;;1043436;28;20719;-73
2022/05/24 00:52:56;;;;;;;6.40;5.45;;;19.50;99.90;;;;;;1043500;28;20032;-72
2022/05/24 00:53:41;;;;;;;4.93;3.75;;;19.50;99.90;;;;;;1042900;28;20477;-74
2022/05/24 00:54:13;;;;;;;6.45;4.72;;;19.50;99.90;;;;;;1038811;28;20041;-72
2022/05/24 00:54:44;;;;;;;5.32;4.82;;;19.50;99.90;;;;;;1035137;28;20046;-73
2022/05/24 00:55:21;;;;;;;5.30;4.80;;;19.50;99.90;;;;;;1033222;28;20019;-73
2022/05/24 00:56:17;;;;;;;4.20;3.75;;;19.50;99.90;;;;;;1036148;28;20026;-72
2022/05/24 00:56:55;;;;;;;5.88;5.28;;;19.50;99.90;;;;;;1043378;28;20063;-72
2022/05/24 00:57:38;;;;;;;6.82;5.22;;;19.50;99.90;;;;;;1043512;28;20025;-73
2022/05/24 00:58:31;;;;;;;3.08;2.78;;;19.50;99.90;;;;;;1043856;28;20028;-72
2022/05/24 00:59:06;;;;;;;5.50;5.00;;;19.50;99.90;;;;;;1043739;28;20036;-72
2022/05/24 00:59:48;;;;;;;5.38;4.45;;;19.50;99.90;;;;;;1042938;28;20032;-72
2022/05/24 01:00:21;;;;;;;4.80;4.28;;;19.50;99.90;;;;;;1043434;28;20017;-73
2022/05/24 01:00:53;;;;;;;3.13;2.83;;;19.50;99.90;;;;;;1043136;28;20021;-73
2022/05/24 01:01:35;;;;;;;4.25;3.80;;;19.50;99.90;;;;;;1043251;28;20098;-73
2022/05/24 01:02:05;;;;;;;5.00;4.50;;;19.50;99.90;;;;;;1043286;28;20025;-71
2022/05/24 01:02:36;;;;;;;5.47;4.23;;;19.50;99.90;;;;;;1042812;28;20088;-72
2022/05/24 01:03:08;;;;;;;5.03;4.20;;;19.50;99.90;;;;;;1043270;28;20044;-73
2022/05/24 01:03:38;;;;;;;4.43;4.03;;;19.50;99.90;;;;;;1042826;28;20029;-72
2022/05/24 01:04:12;;;;;;;4.50;3.60;;;19.50;99.90;;;;;;1043182;28;20021;-72
2022/05/24 01:04:43;;;;;;;5.65;4.30;;;19.50;99.90;;;;;;1041937;28;20021;-73
2022/05/24 01:05:21;;;;;;;5.37;4.87;;;19.50;99.90;;;;;;1039193;28;20014;-75
2022/05/24 01:05:51;;;;;;;5.72;4.97;;;19.50;99.90;;;;;;1038762;28;20595;-72
2022/05/24 01:06:22;;;;;;;4.93;4.40;;;19.50;99.90;;;;;;1040438;28;20412;-73
2022/05/24 01:06:53;;;;;;;5.65;4.95;;;19.50;99.90;;;;;;1042969;28;20044;-72
2022/05/24 01:07:24;;;;;;;5.20;3.90;;;19.50;99.90;;;;;;1043474;28;20028;-72
2022/05/24 01:07:55;;;;;;;6.73;6.10;;;19.50;99.90;;;;;;1043194;28;20102;-73
2022/05/24 01:08:25;;;;;;;4.72;3.55;;;19.50;99.90;;;;;;1043895;28;20484;-72
2022/05/24 01:09:00;;;;;;;5.93;5.23;;;19.50;99.90;;;;;;1043244;28;20480;-73
2022/05/24 01:09:40;;;;;;;6.82;5.03;;;19.50;99.90;;;;;;1043592;28;20017;-72
2022/05/24 01:10:16;;;;;;;5.25;3.90;;;19.50;99.90;;;;;;1043281;28;20041;-72
2022/05/24 01:10:51;;;;;;;5.40;4.43;;;19.50;99.90;;;;;;1043735;28;20053;-73
2022/05/24 01:11:23;;;;;;;5.88;5.18;;;19.50;99.90;;;;;;1043545;28;20040;-73
2022/05/24 01:11:58;;;;;;;4.95;3.22;;;19.50;99.90;;;;;;1043465;28;20066;-74
2022/05/24 01:12:39;;;;;;;3.95;3.58;;;19.50;99.90;;;;;;1043340;28;20738;-72
2022/05/24 01:13:29;;;;;;;5.13;3.38;;;19.50;99.90;;;;;;1043074;28;20027;-73
2022/05/24 01:14:01;;;;;;;6.30;5.65;;;19.50;99.90;;;;;;1043070;28;20033;-73
2022/05/24 01:14:32;;;;;;;6.20;4.97;;;19.50;99.90;;;;;;1043188;28;20021;-72
2022/05/24 01:15:07;;;;;;;7.32;6.28;;;19.50;99.90;;;;;;1043217;28;20137;-73
2022/05/24 01:15:39;;;;;;;3.97;3.60;;;19.50;99.90;;;;;;1043153;28;20021;-72
2022/05/24 01:16:11;;;;;;;8.73;4.80;;;19.50;99.90;;;;;;1042374;28;20087;-73
2022/05/24 01:16:42;;;;;;;5.10;4.60;;;19.50;99.90;;;;;;1042833;28;20005;-73
2022/05/24 01:17:13;;;;;;;3.97;3.53;;;19.50;99.90;;;;;;1042930;28;20017;-72
2022/05/24 01:17:45;;;;;;;5.33;4.33;;;19.50;99.90;;;;;;1043703;28;20103;-73
2022/05/24 01:18:15;;;;;;;4.75;4.25;;;19.50;99.90;;;;;;1043165;28;20071;-73
2022/05/24 01:18:46;;;;;;;4.80;4.17;;;19.50;99.90;;;;;;1043337;28;20127;-73
2022/05/24 01:19:36;;;;;;;5.97;4.03;;;19.50;99.90;;;;;;1043229;28;20416;-74
2022/05/24 01:20:08;;;;;;;5.28;4.00;;;19.40;99.90;;;;;;1043230;28;20017;-72
2022/05/24 01:20:43;;;;;;;4.90;4.10;;;19.50;99.90;;;;;;1043195;28;20017;-72
2022/05/24 01:21:16;;;;;;;5.35;4.28;;;19.50;99.90;;;;;;1043914;28;20024;-71
2022/05/24 01:21:48;;;;;;;5.07;3.95;;;19.50;99.90;;;;;;1043161;28;20440;-73
2022/05/24 01:22:44;;;;;;;5.53;4.07;;;19.50;99.90;;;;;;1043612;28;20025;-72
2022/05/24 01:23:39;;;;;;;4.07;3.67;;;19.50;99.90;;;;;;1043150;28;20511;-71
2022/05/24 01:24:29;;;;;;;4.80;3.83;;;19.40;99.90;;;;;;1043180;28;20096;-72
2022/05/24 01:25:06;;;;;;;5.30;3.90;;;19.50;99.90;;;;;;1040636;28;20167;-73
2022/05/24 01:25:58;;;;;;;5.63;4.05;;;19.40;99.90;;;;;;1038593;28;20025;-73
2022/05/24 01:26:52;;;;;;;4.82;4.32;;;19.40;99.90;;;;;;1035123;28;20026;-73
2022/05/24 01:27:22;;;;;;;4.40;3.75;;;19.40;99.90;;;;;;1041156;28;20060;-73
2022/05/24 01:27:53;;;;;;;4.87;4.23;;;19.40;99.90;;;;;;1038550;28;20026;-72
2022/05/24 01:28:38;;;;;;;3.40;2.90;;;19.40;99.90;;;;;;1042458;28;20025;-73
2022/05/24 01:29:09;;;;;;;5.70;4.07;;;19.40;99.90;;;;;;1043102;28;20104;-73
2022/05/24 01:29:39;;;;;;;4.07;3.67;;;19.40;99.90;;;;;;1043445;28;20078;-73
2022/05/24 01:30:11;;;;;;;5.97;3.87;;;19.40;99.90;;;;;;1043242;28;20063;-72
2022/05/24 01:30:42;;;;;;;3.58;3.08;;;19.40;99.90;;;;;;1043498;28;20743;-71
2022/05/24 01:31:12;;;;;;;4.70;2.90;;;19.40;99.90;;;;;;1043216;28;20021;-74
2022/05/24 01:36:40;;;;;;;5.70;3.33;;;19.40;99.90;;;;;;1043172;28;20045;-74
2022/05/24 01:37:12;;;;;;;5.07;3.67;;;19.40;99.90;;;;;;1042973;28;20167;-73
2022/05/24 01:37:43;;;;;;;4.63;3.55;;;19.40;99.90;;;;;;1042999;28;20416;-73
2022/05/24 01:38:24;;;;;;;5.67;3.13;;;19.40;99.90;;;;;;1042971;28;20496;-73
2022/05/24 01:39:00;;;;;;;6.55;3.92;;;19.40;99.90;;;;;;1043015;28;20017;-73
2022/05/24 01:39:30;;;;;;;3.67;2.70;;;19.40;99.90;;;;;;1038699;28;20029;-74
2022/05/24 01:40:04;;;;;;;4.63;3.13;;;19.40;99.90;;;;;;1035082;28;20026;-73
2022/05/24 01:40:36;;;;;;;5.60;3.75;;;19.40;99.90;;;;;;1035964;28;20030;-73
2022/05/24 01:41:08;;;;;;;9.13;3.67;;;19.40;99.90;;;;;;1038949;28;20029;-75
2022/05/24 01:41:48;;;;;;;7.40;3.35;;;19.40;99.90;;;;;;1038715;28;20061;-73
2022/05/24 01:42:19;;;;;;;4.28;3.08;;;19.40;99.90;;;;;;1036842;28;20030;-73
2022/05/24 01:42:50;;;;;;;4.38;3.10;;;19.40;99.90;;;;;;1036348;28;20029;-73
2022/05/24 01:43:24;;;;;;;5.73;3.40;;;19.40;99.90;;;;;;1039110;28;20029;-73
2022/05/24 01:43:56;;;;;;;4.70;3.42;;;19.40;99.90;;;;;;1038447;28;20030;-73
2022/05/24 01:44:36;;;;;;;3.85;2.88;;;19.40;99.90;;;;;;1038789;28;20025;-73
2022/05/24 01:45:23;;;;;;;4.13;2.72;;;19.40;99.90;;;;;;1039649;28;20024;-74
2022/05/24 01:46:00;;;;;;;4.93;2.67;;;19.40;99.90;;;;;;1038821;28;20103;-73
2022/05/24 01:46:41;;;;;;;4.03;2.70;;;19.40;99.90;;;;;;1039543;28;20028;-73
2022/05/24 01:47:13;;;;;;;6.45;3.63;;;19.50;99.90;;;;;;1039404;28;20022;-73
2022/05/24 01:47:47;;;;;;;4.70;3.88;;;19.40;99.90;;;;;;1038877;28;20769;-73
2022/05/24 01:48:23;;;;;;;5.28;3.25;;;19.40;99.90;;;;;;1040166;28;20645;-72
2022/05/24 01:49:01;;;;;;;5.97;3.40;;;19.40;99.90;;;;;;1038461;28;20022;-74
2022/05/24 01:49:36;;;;;;;5.47;3.10;;;19.40;99.90;;;;;;1041285;28;20071;-73
2022/05/24 01:50:11;;;;;;;5.00;3.35;;;19.40;99.90;;;;;;1042960;28;20025;-74
2022/05/24 01:50:44;;;;;;;4.97;3.35;;;19.40;99.90;;;;;;1041363;28;20210;-74
2022/05/24 01:51:18;;;;;;;3.03;2.72;;;19.40;99.90;;;;;;1042942;28;20138;-73
2022/05/24 01:51:55;;;;;;;4.45;2.95;;;19.40;99.90;;;;;;1043022;28;20528;-74
2022/05/24 01:52:43;;;;;;;4.93;2.47;;;19.40;99.90;;;;;;1038651;28;20746;-73
2022/05/24 01:53:21;;;;;;;4.20;2.92;;;19.40;99.90;;;;;;1034544;28;20077;-73
2022/05/24 01:53:57;;;;;;;4.18;3.15;;;19.40;99.90;;;;;;1034754;28;20030;-71
2022/05/24 01:54:29;;;;;;;4.25;2.53;;;19.40;99.90;;;;;;1034620;28;20026;-72
2022/05/24 01:55:10;;;;;;;2.65;2.40;;;19.30;99.90;;;;;;1036801;28;20092;-71
2022/05/24 01:55:45;;;;;;;4.65;3.03;;;19.40;99.90;;;;;;1039210;28;20022;-72
2022/05/24 01:56:22;;;;;;;3.63;2.83;;;19.30;99.90;;;;;;1038661;28;20022;-72
2022/05/24 01:57:01;;;;;;;4.47;3.10;;;19.30;99.90;;;;;;1037735;28;20032;-72
2022/05/24 01:57:37;;;;;;;4.28;3.17;;;19.30;99.90;;;;;;1038743;28;20053;-73
2022/05/24 01:58:12;;;;;;;5.22;3.72;;;19.30;99.90;;;;;;1034966;28;20497;-73
2022/05/24 01:58:48;;;;;;;5.47;2.85;;;19.30;99.90;;;;;;1037534;28;20033;-73
2022/05/24 01:59:20;;;;;;;5.63;3.20;;;19.30;99.90;;;;;;1034591;28;20033;-72
2022/05/24 01:59:52;;;;;;;4.65;2.72;;;19.30;99.90;;;;;;1036461;28;20117;-73
2022/05/24 02:00:24;;;;;;;4.60;3.30;;;19.30;99.90;;;;;;1038816;28;20100;-73
2022/05/24 02:01:02;;;;;;;4.72;2.83;;;19.30;99.90;;;;;;1039370;28;20009;-73
2022/05/24 02:01:43;;;;;;;4.03;2.67;;;19.30;99.90;;;;;;1039037;28;20354;-73
2022/05/24 02:02:13;;;;;;;4.35;3.28;;;19.20;99.90;;;;;;1038945;28;20438;-72
2022/05/24 02:02:44;;;;;;;6.10;3.37;;;19.20;99.90;;;;;;1034632;28;20472;-72
2022/05/24 02:03:15;;;;;;;4.05;3.00;;;19.20;99.90;;;;;;1031110;28;20125;-73
2022/05/24 02:03:47;;;;;;;4.43;2.70;;;19.20;99.90;;;;;;1030678;28;20254;-73
2022/05/24 02:04:20;;;;;;;4.13;2.67;;;19.20;99.90;;;;;;1035536;28;20544;-72
2022/05/24 02:04:51;;;;;;;4.47;3.08;;;19.20;99.90;;;;;;1038410;28;20671;-72
2022/05/24 02:05:34;;;;;;;5.90;3.80;;;19.20;99.90;;;;;;1039035;28;20753;-72
2022/05/24 02:06:25;;;;;;;4.78;3.10;;;19.20;99.90;;;;;;1038981;28;20098;-73
2022/05/24 02:07:07;;;;;;;7.07;3.58;;;19.20;99.90;;;;;;1038409;28;20018;-73
2022/05/24 02:07:39;;;;;;;5.15;2.60;;;19.20;99.90;;;;;;1039215;28;20020;-74
2022/05/24 02:08:11;;;;;;;3.97;3.03;;;19.20;99.90;;;;;;1039119;28;20079;-72
2022/05/24 02:08:41;;;;;;;4.80;3.25;;;19.20;99.90;;;;;;1038889;28;20076;-74
2022/05/24 02:09:13;;;;;;;3.73;2.87;;;19.20;99.90;;;;;;1034819;28;20030;-72
2022/05/24 02:09:48;;;;;;;5.65;3.45;;;19.20;99.90;;;;;;1034639;28;20045;-73
2022/05/24 02:10:19;;;;;;;3.92;2.70;;;19.20;99.90;;;;;;1035618;28;20030;-71
2022/05/24 02:10:55;;;;;;;3.70;2.70;;;19.20;99.90;;;;;;1039432;28;20020;-73
2022/05/24 02:11:29;;;;;;;4.50;3.40;;;19.20;99.90;;;;;;1043311;28;20059;-72
2022/05/24 02:12:04;;;;;;;4.65;3.13;;;19.20;99.90;;;;;;1042910;28;20025;-71
2022/05/24 02:12:44;;;;;;;4.53;3.63;;;19.20;99.90;;;;;;1042939;28;20048;-71
2022/05/24 02:13:21;;;;;;;5.53;3.30;;;19.20;99.90;;;;;;1038644;28;20467;-72
2022/05/24 02:14:20;;;;;;;5.78;4.15;;;19.20;99.90;;;;;;1039022;28;20017;-74
2022/05/24 02:14:57;;;;;;;3.22;2.70;;;19.20;99.90;;;;;;1041820;28;20146;-72
2022/05/24 02:15:32;;;;;;;5.97;3.00;;;19.20;99.90;;;;;;1043297;28;20017;-73
2022/05/24 02:16:08;;;;;;;4.60;3.42;;;19.20;99.90;;;;;;1042654;28;20484;-72
2022/05/24 02:16:52;;;;;;;6.38;4.18;;;19.20;99.90;;;;;;1043275;28;20011;-73
2022/05/24 02:17:41;;;;;;;6.35;3.40;;;19.20;99.90;;;;;;1042838;28;20017;-73
2022/05/24 02:18:15;;;;;;;6.97;4.32;;;19.20;99.90;;;;;;1042722;28;20027;-73
2022/05/24 02:18:47;;;;;;;3.90;2.60;;;19.20;99.90;;;;;;1042890;28;20055;-73
2022/05/24 02:19:19;;;;;;;4.47;3.17;;;19.20;99.90;;;;;;1043084;28;20400;-72
2022/05/24 02:19:53;;;;;;;4.22;3.33;;;19.20;99.90;;;;;;1042946;28;20089;-75
2022/05/24 02:20:28;;;;;;;5.30;4.13;;;19.20;99.90;;;;;;1039534;28;20028;-75
2022/05/24 02:20:58;;;;;;;4.38;3.97;;;19.20;99.90;;;;;;1038923;28;20060;-73
2022/05/24 02:21:29;;;;;;;5.03;3.63;;;19.20;99.90;;;;;;1038512;28;20119;-74
2022/05/24 02:22:03;;;;;;;4.23;3.20;;;19.20;99.90;;;;;;1035289;28;20014;-73
2022/05/24 02:22:33;;;;;;;6.95;3.75;;;19.20;99.90;;;;;;1034804;28;20036;-73
2022/05/24 02:23:05;;;;;;;3.33;2.60;;;19.20;99.90;;;;;;1038929;28;20021;-73
2022/05/24 02:23:41;;;;;;;4.15;2.95;;;19.20;99.90;;;;;;1039269;28;20024;-74
2022/05/24 02:24:19;;;;;;;4.45;3.00;;;19.20;99.90;;;;;;1043126;28;20559;-74
2022/05/24 02:24:56;;;;;;;4.00;3.60;;;19.20;99.90;;;;;;1042497;28;20131;-73
2022/05/24 02:25:35;;;;;;;6.30;4.47;;;19.20;99.90;;;;;;1042928;28;20017;-73
2022/05/24 02:26:09;;;;;;;5.90;4.35;;;19.20;99.90;;;;;;1043076;28;20758;-74
2022/05/24 02:26:39;;;;;;;4.93;4.43;;;19.20;99.90;;;;;;1042611;28;20036;-75
2022/05/24 02:27:10;;;;;;;5.40;3.80;;;19.20;99.90;;;;;;1043163;28;20116;-73
2022/05/24 02:27:43;;;;;;;6.13;3.87;;;19.20;99.90;;;;;;1042327;28;20112;-74
2022/05/24 02:28:15;;;;;;;5.10;3.60;;;19.20;99.90;;;;;;1043065;28;20063;-73
2022/05/24 02:28:50;;;;;;;5.05;3.30;;;19.20;99.90;;;;;;1042452;28;20017;-74
2022/05/24 02:29:22;;;;;;;3.38;2.88;;;19.20;99.90;;;;;;1043249;28;20153;-71
2022/05/24 02:29:53;;;;;;;5.07;3.42;;;19.20;99.90;;;;;;1042480;28;20143;-72
2022/05/24 02:30:27;;;;;;;4.40;3.97;;;19.20;99.90;;;;;;1042082;28;20021;-73
2022/05/24 02:31:01;;;;;;;3.60;3.17;;;19.20;99.90;;;;;;1038528;28;20026;-73
2022/05/24 02:31:32;;;;;;;5.25;3.20;;;19.20;99.90;;;;;;1038739;28;20013;-73
2022/05/24 02:32:04;;;;;;;6.25;3.75;;;19.20;99.90;;;;;;1039554;28;20499;-74
2022/05/24 02:32:34;;;;;;;4.53;4.00;;;19.20;99.90;;;;;;1043053;28;20031;-72
2022/05/24 02:33:05;;;;;;;6.23;4.43;;;19.20;99.90;;;;;;1042809;28;20025;-73
2022/05/24 02:33:36;;;;;;;3.93;3.20;;;19.20;99.90;;;;;;1040578;28;20021;-72
2022/05/24 02:34:06;;;;;;;4.83;3.53;;;19.20;99.90;;;;;;1038851;28;20108;-74
2022/05/24 02:34:37;;;;;;;5.50;4.20;;;19.20;99.90;;;;;;1038743;28;20068;-73
2022/05/24 02:35:09;;;;;;;5.90;4.37;;;19.20;99.90;;;;;;1038521;28;20136;-72
2022/05/24 02:35:40;;;;;;;5.22;3.03;;;19.20;99.90;;;;;;1038889;28;20248;-73
2022/05/24 02:36:12;;;;;;;5.68;3.95;;;19.20;99.90;;;;;;1038546;28;20116;-72
2022/05/24 02:36:42;;;;;;;4.68;3.33;;;19.20;99.90;;;;;;1037951;28;20025;-73
2022/05/24 02:37:13;;;;;;;3.33;3.03;;;19.20;99.90;;;;;;1038440;28;20108;-74
2022/05/24 02:37:44;;;;;;;4.20;3.20;;;19.20;99.90;;;;;;1039045;28;20025;-72
2022/05/24 02:38:15;;;;;;;5.57;4.20;;;19.20;99.90;;;;;;1038641;28;20072;-72
2022/05/24 02:38:46;;;;;;;7.27;4.93;;;19.20;99.90;;;;;;1039254;28;20239;-72
2022/05/24 02:39:16;;;;;;;5.18;4.30;;;19.20;99.90;;;;;;1038981;28;20048;-72
2022/05/24 02:41:28;;;;;;;4.15;3.58;;;19.20;99.90;;;;;;1039002;28;20036;-72
2022/05/24 02:41:59;;;;;;;5.00;3.88;;;19.20;99.90;;;;;;1038794;28;20120;-72
2022/05/24 02:42:31;;;;;;;5.10;3.40;;;19.20;99.90;;;;;;1038703;28;20070;-72
2022/05/24 02:43:02;;;;;;;6.00;3.75;;;19.10;99.90;;;;;;1039148;28;20361;-72
2022/05/24 02:43:33;;;;;;;7.00;3.77;;;19.10;99.90;;;;;;1038440;28;20483;-74
2022/05/24 02:44:13;;;;;;;3.03;2.67;;;19.20;99.90;;;;;;1038902;28;20131;-73
2022/05/24 02:44:46;;;;;;;6.28;4.63;;;19.10;99.90;;;;;;1038889;28;20907;-72
2022/05/24 02:45:17;;;;;;;5.22;3.70;;;19.10;99.90;;;;;;1039078;28;20123;-72
2022/05/24 02:45:47;;;;;;;11.50;5.13;;;19.10;99.90;;;;;;1034387;28;20309;-73
2022/05/24 02:46:19;;;;;;;7.30;5.20;;;19.10;99.90;;;;;;1034997;28;20026;-73
2022/05/24 02:46:50;;;;;;;5.07;3.95;;;19.10;99.90;;;;;;1034491;28;20090;-74
2022/05/24 02:47:22;;;;;;;4.23;3.80;;;19.10;99.90;;;;;;1039023;28;20140;-72
2022/05/24 02:47:53;;;;;;;5.45;4.25;;;19.10;99.90;;;;;;1038744;28;20457;-73
2022/05/24 02:48:23;;;;;;;5.20;3.97;;;19.10;99.90;;;;;;1041068;28;20029;-73
2022/05/24 02:48:54;;;;;;;4.83;3.80;;;19.10;99.90;;;;;;1042809;28;20020;-73
2022/05/24 02:49:24;;;;;;;5.77;3.37;;;19.10;99.90;;;;;;1043442;28;20017;-73
2022/05/24 02:49:55;;;;;;;6.13;4.83;;;19.10;99.90;;;;;;1042840;28;20051;-74
2022/05/24 02:50:26;;;;;;;4.30;3.90;;;19.00;99.90;;;;;;1043474;28;20016;-74
2022/05/24 02:50:58;;;;;;;5.27;4.13;;;19.00;99.90;;;;;;1043059;28;20025;-73
2022/05/24 02:51:29;;;;;;;3.90;3.30;;;19.00;99.90;;;;;;1043440;28;20067;-73
2022/05/24 02:51:59;;;;;;;3.30;3.00;;;19.00;99.90;;;;;;1043206;28;20070;-73
2022/05/24 02:52:30;;;;;;;4.83;3.97;;;19.00;99.90;;;;;;1043444;28;20054;-74
2022/05/24 02:53:00;;;;;;;5.37;3.80;;;19.00;99.90;;;;;;1042574;28;20115;-72
2022/05/24 02:53:31;;;;;;;7.43;4.50;;;19.00;99.90;;;;;;1043151;28;20027;-73
2022/05/24 02:54:02;;;;;;;5.33;4.80;;;19.00;99.90;;;;;;1042615;28;20017;-72
2022/05/24 02:54:32;;;;;;;5.03;3.40;;;19.00;99.90;;;;;;1042973;28;20053;-73
2022/05/24 02:55:08;;;;;;;5.20;3.73;;;19.00;99.90;;;;;;1042604;28;20809;-73
2022/05/24 02:55:38;;;;;;;4.20;3.22;;;19.00;99.90;;;;;;1042987;28;20044;-73
2022/05/24 02:56:09;;;;;;;6.50;3.40;;;19.00;99.90;;;;;;1039181;28;20021;-73
2022/05/24 02:56:43;;;;;;;4.50;3.40;;;19.00;99.90;;;;;;1042897;28;20021;-73
2022/05/24 02:57:14;;;;;;;3.88;3.35;;;19.00;99.90;;;;;;1042685;28;20036;-72
2022/05/24 02:57:45;;;;;;;5.10;3.57;;;19.00;99.90;;;;;;1039151;28;20107;-73
2022/05/24 02:58:16;;;;;;;4.82;3.67;;;18.90;99.90;;;;;;1038554;28;20017;-72
2022/05/24 02:58:46;;;;;;;5.70;3.87;;;18.90;99.90;;;;;;1038794;28;20037;-75
2022/05/24 02:59:17;;;;;;;5.13;3.17;;;18.90;99.90;;;;;;1034523;28;20072;-73
2022/05/24 02:59:47;;;;;;;4.50;3.27;;;18.90;99.90;;;;;;1038795;28;20101;-73
2022/05/24 03:00:21;;;;;;;5.97;4.33;;;18.90;99.90;;;;;;1042789;28;20021;-73
2022/05/24 03:00:51;;;;;;;5.90;3.78;;;18.90;99.90;;;;;;1042720;28;20108;-73
2022/05/24 03:01:26;;;;;;;3.63;2.80;;;18.90;99.90;;;;;;1043126;28;20021;-75
2022/05/24 03:01:56;;;;;;;4.30;3.20;;;18.90;99.90;;;;;;1043343;28;20020;-74
2022/05/24 03:02:27;;;;;;;7.50;4.13;;;18.90;99.90;;;;;;1042439;28;20021;-73
2022/05/24 03:02:58;;;;;;;4.20;2.93;;;18.90;99.90;;;;;;1042919;28;20092;-73
2022/05/24 03:03:28;;;;;;;3.42;2.70;;;19.00;99.90;;;;;;1042459;28;20092;-72
2022/05/24 03:04:01;;;;;;;5.23;3.37;;;19.00;99.90;;;;;;1043096;28;20116;-73
2022/05/24 03:04:33;;;;;;;3.63;2.80;;;18.90;99.90;;;;;;1042424;28;20029;-73
2022/05/24 03:05:06;;;;;;;4.65;3.03;;;18.90;99.90;;;;;;1042661;28;20095;-73
2022/05/24 03:05:37;;;;;;;5.57;3.70;;;18.90;99.90;;;;;;1042454;28;20017;-73